Time;durP1;ratioP1;P1;durP2;ratioP2;P2;SDS_P1;SDS_P2;PMS_P1;PMS_P2;Temp;Humidity;BMP_temperature;BMP_pressure;BME280_temperature;BME280_humidity;BME280_pressure;Samples;Min_cycle;Max_cycle;Signal;HPM_P1;HPM_P2
2021/01/15 00:03:12;;;;;;;13.87;7.10;;;;;;;;;;10144781;29;20720;-82
2021/01/15 00:08:14;;;;;;;9.87;6.53;;;;;;;;;;10151703;29;20226;-84
2021/01/15 00:13:15;;;;;;;10.67;6.17;;;;;;;;;;10144731;29;20231;-82
2021/01/15 00:18:18;;;;;;;10.77;6.20;;;;;;;;;;10146718;29;20240;-84
2021/01/15 00:23:20;;;;;;;10.87;6.40;;;;;;;;;;10155156;29;20228;-83
2021/01/15 00:28:22;;;;;;;9.20;6.33;;;;;;;;;;10131444;29;20227;-85
2021/01/15 00:33:25;;;;;;;11.00;6.10;;;;;;;;;;10137816;29;20215;-85
2021/01/15 00:38:27;;;;;;;11.43;6.17;;;;;;;;;;10138695;29;20244;-84
2021/01/15 00:43:29;;;;;;;12.40;6.23;;;;;;;;;;10150950;29;20219;-84
2021/01/15 00:48:32;;;;;;;8.63;5.77;;;;;;;;;;10137866;29;20216;-84
2021/01/15 00:53:34;;;;;;;9.53;5.73;;;;;;;;;;10143244;29;20212;-84
2021/01/15 00:58:36;;;;;;;9.57;6.00;;;;;;;;;;10130468;29;20639;-84
2021/01/15 01:03:38;;;;;;;10.13;5.93;;;;;;;;;;10135719;29;20295;-84
2021/01/15 01:08:41;;;;;;;8.87;5.40;;;;;;;;;;10141297;29;20709;-84
2021/01/15 01:13:42;;;;;;;12.07;6.07;;;;;;;;;;10136350;29;20224;-83
2021/01/15 01:18:46;;;;;;;9.87;6.23;;;;;;;;;;10130505;29;20549;-83
2021/01/15 01:23:47;;;;;;;8.17;5.73;;;;;;;;;;10127161;29;20812;-84
2021/01/15 01:28:49;;;;;;;9.67;6.07;;;;;;;;;;10132965;29;20223;-84
2021/01/15 01:33:52;;;;;;;10.60;6.00;;;;;;;;;;10126922;29;20220;-83
2021/01/15 01:38:54;;;;;;;9.00;5.93;;;;;;;;;;10135808;29;20268;-83
2021/01/15 01:43:56;;;;;;;8.57;6.00;;;;;;;;;;10132442;29;20961;-83
2021/01/15 01:48:59;;;;;;;11.63;6.73;;;;;;;;;;10135216;29;20306;-83
2021/01/15 01:54:01;;;;;;;11.40;6.80;;;;;;;;;;10140976;29;20231;-84
2021/01/15 01:59:04;;;;;;;9.97;6.57;;;;;;;;;;10140015;29;20246;-84
2021/01/15 02:04:07;;;;;;;12.30;6.47;;;;;;;;;;10148099;29;20219;-85
2021/01/15 02:09:09;;;;;;;11.33;7.03;;;;;;;;;;10130311;29;20220;-84
2021/01/15 02:14:18;;;;;;;11.13;6.73;;;;;;;;;;10141585;29;20310;-82
2021/01/15 02:19:34;;;;;;;11.27;6.40;;;;;;;;;;10132126;29;20842;-84
2021/01/15 02:24:59;;;;;;;10.00;6.40;;;;;;;;;;10126026;29;21583;-84
2021/01/15 02:30:08;;;;;;;11.47;7.13;;;;;;;;;;10129289;29;20306;-84
2021/01/15 02:35:23;;;;;;;12.70;6.80;;;;;;;;;;10141439;29;20239;-83
2021/01/15 02:40:29;;;;;;;10.83;6.70;;;;;;;;;;10137472;29;20246;-83
2021/01/15 02:45:31;;;;;;;10.47;6.50;;;;;;;;;;10132827;29;20216;-84
2021/01/15 02:50:34;;;;;;;11.93;6.47;;;;;;;;;;10132534;29;20212;-83
2021/01/15 02:55:36;;;;;;;10.33;6.40;;;;;;;;;;10140576;29;20557;-85
2021/01/15 03:00:38;;;;;;;9.00;6.03;;;;;;;;;;10139024;29;20247;-84
2021/01/15 03:05:44;;;;;;;10.33;6.20;;;;;;;;;;10147304;29;20231;-84
2021/01/15 03:10:46;;;;;;;9.77;5.90;;;;;;;;;;10161599;29;20229;-84
2021/01/15 03:15:49;;;;;;;9.30;6.03;;;;;;;;;;10167758;29;20288;-83
2021/01/15 03:20:53;;;;;;;13.20;6.80;;;;;;;;;;10169423;29;20250;-85
2021/01/15 03:25:55;;;;;;;9.93;6.20;;;;;;;;;;10176713;29;21561;-84
2021/01/15 03:30:58;;;;;;;9.33;6.40;;;;;;;;;;10166385;29;20226;-83
2021/01/15 03:36:02;;;;;;;8.80;5.97;;;;;;;;;;10174636;29;20224;-83
2021/01/15 03:41:04;;;;;;;8.70;5.80;;;;;;;;;;10184351;29;20239;-83
2021/01/15 03:46:06;;;;;;;10.10;6.50;;;;;;;;;;10155384;29;20219;-84
2021/01/15 03:51:09;;;;;;;10.40;6.40;;;;;;;;;;10158855;29;20223;-84
2021/01/15 03:56:20;;;;;;;10.00;6.37;;;;;;;;;;10150281;29;20952;-83
2021/01/15 04:01:22;;;;;;;11.90;6.70;;;;;;;;;;10148583;29;22951;-82
2021/01/15 04:06:25;;;;;;;11.77;6.70;;;;;;;;;;10150098;29;20216;-88
2021/01/15 04:11:27;;;;;;;13.83;6.80;;;;;;;;;;10172891;29;20316;-89
2021/01/15 04:16:29;;;;;;;12.27;6.40;;;;;;;;;;10155783;29;20220;-88
2021/01/15 04:21:31;;;;;;;9.53;5.90;;;;;;;;;;10164580;29;20248;-88
2021/01/15 04:26:33;;;;;;;9.90;6.13;;;;;;;;;;10170262;29;20942;-88
2021/01/15 04:31:36;;;;;;;9.40;5.90;;;;;;;;;;10164702;29;20219;-87
2021/01/15 04:36:38;;;;;;;8.83;5.83;;;;;;;;;;10165959;29;20216;-89
2021/01/15 04:41:42;;;;;;;9.27;5.90;;;;;;;;;;10155269;29;20255;-89
2021/01/15 04:46:45;;;;;;;8.87;5.67;;;;;;;;;;10169117;29;20716;-88
2021/01/15 04:51:52;;;;;;;9.33;5.90;;;;;;;;;;10158783;29;20211;-88
2021/01/15 04:56:54;;;;;;;10.07;5.53;;;;;;;;;;10165037;29;20223;-88
2021/01/15 05:02:01;;;;;;;9.60;5.77;;;;;;;;;;10162921;29;20244;-88
2021/01/15 05:07:04;;;;;;;10.60;5.90;;;;;;;;;;10169285;29;20200;-86
2021/01/15 05:12:07;;;;;;;11.57;6.40;;;;;;;;;;10193458;29;20316;-89
2021/01/15 05:17:09;;;;;;;9.33;6.10;;;;;;;;;;10182607;29;20215;-88
2021/01/15 05:22:12;;;;;;;8.00;5.47;;;;;;;;;;10190515;29;20279;-89
2021/01/15 05:32:30;;;;;;;9.40;6.17;;;;;;;;;;10196851;29;20222;-88
2021/01/15 05:37:34;;;;;;;9.93;6.10;;;;;;;;;;10198874;29;20318;-87
2021/01/15 05:42:45;;;;;;;11.83;6.50;;;;;;;;;;10194315;29;20424;-90
2021/01/15 05:47:47;;;;;;;11.40;7.07;;;;;;;;;;10180053;29;20213;-89
2021/01/15 05:52:56;;;;;;;12.67;7.30;;;;;;;;;;10161656;29;20226;-89
2021/01/15 05:58:08;;;;;;;12.20;6.63;;;;;;;;;;10144123;29;20247;-88
2021/01/15 06:03:14;;;;;;;10.80;6.73;;;;;;;;;;10145536;29;20220;-89
2021/01/15 06:08:17;;;;;;;11.20;7.00;;;;;;;;;;10143052;29;20234;-88
2021/01/15 06:13:35;;;;;;;10.97;7.60;;;;;;;;;;10147392;29;20220;-89
2021/01/15 06:18:37;;;;;;;14.40;7.80;;;;;;;;;;10141965;29;20274;-88
2021/01/15 06:23:46;;;;;;;12.57;7.27;;;;;;;;;;10145600;29;20796;-87
2021/01/15 06:29:01;;;;;;;12.27;7.93;;;;;;;;;;10145177;29;20564;-88
2021/01/15 06:34:03;;;;;;;14.33;8.20;;;;;;;;;;10155493;29;20208;-88
2021/01/15 06:39:09;;;;;;;13.90;7.10;;;;;;;;;;10174279;29;20895;-88
2021/01/15 06:44:11;;;;;;;14.00;7.90;;;;;;;;;;10155787;29;20785;-88
2021/01/15 06:49:14;;;;;;;11.10;7.67;;;;;;;;;;10153816;29;20718;-87
2021/01/15 06:54:23;;;;;;;13.87;7.50;;;;;;;;;;10155314;29;20223;-89
2021/01/15 06:59:30;;;;;;;12.00;7.40;;;;;;;;;;10145495;29;20654;-86
2021/01/15 07:04:40;;;;;;;12.67;8.00;;;;;;;;;;10140737;29;20216;-89
2021/01/15 07:09:44;;;;;;;14.07;7.70;;;;;;;;;;10145501;29;20270;-78
2021/01/15 07:14:49;;;;;;;13.23;7.17;;;;;;;;;;10146145;29;20287;-84
2021/01/15 07:20:00;;;;;;;16.70;7.57;;;;;;;;;;10148697;29;20303;-86
2021/01/15 07:25:04;;;;;;;13.60;7.83;;;;;;;;;;10149564;29;20315;-82
2021/01/15 07:30:11;;;;;;;12.83;7.23;;;;;;;;;;10155603;29;20574;-83
2021/01/15 07:35:14;;;;;;;13.73;8.23;;;;;;;;;;10158004;29;20585;-84
2021/01/15 07:40:18;;;;;;;13.60;8.00;;;;;;;;;;10158797;29;20622;-85
2021/01/15 07:45:50;;;;;;;20.60;7.73;;;;;;;;;;10149619;29;20603;-82
2021/01/15 07:50:54;;;;;;;17.93;8.57;;;;;;;;;;10159402;29;20309;-82
2021/01/15 07:55:59;;;;;;;15.03;8.47;;;;;;;;;;10134038;29;20228;-83
2021/01/15 08:01:05;;;;;;;13.83;8.60;;;;;;;;;;10146170;29;20243;-84
2021/01/15 08:06:08;;;;;;;14.87;8.60;;;;;;;;;;10146849;29;20212;-86
2021/01/15 08:11:11;;;;;;;15.53;7.83;;;;;;;;;;10148300;29;20702;-84
2021/01/15 08:16:13;;;;;;;16.70;8.20;;;;;;;;;;10149108;29;20620;-83
2021/01/15 08:21:19;;;;;;;14.40;8.87;;;;;;;;;;10169701;29;20624;-92
2021/01/15 08:26:29;;;;;;;13.07;7.70;;;;;;;;;;10153819;29;20215;-82
2021/01/15 08:31:31;;;;;;;11.57;7.80;;;;;;;;;;10137971;29;20617;-78
2021/01/15 08:36:33;;;;;;;13.27;8.43;;;;;;;;;;10137415;29;20377;-82
2021/01/15 08:41:37;;;;;;;16.63;8.07;;;;;;;;;;10156465;29;20516;-77
2021/01/15 08:46:39;;;;;;;12.80;7.80;;;;;;;;;;10154721;29;20292;-86
2021/01/15 08:51:42;;;;;;;12.57;7.87;;;;;;;;;;10134238;29;20257;-80
2021/01/15 08:56:46;;;;;;;11.97;7.90;;;;;;;;;;10146048;29;20300;-79
2021/01/15 09:01:49;;;;;;;12.53;7.93;;;;;;;;;;10151956;29;20390;-80
2021/01/15 09:06:55;;;;;;;13.93;7.93;;;;;;;;;;10129941;29;20227;-80
2021/01/15 09:12:01;;;;;;;19.73;8.37;;;;;;;;;;10124896;29;20270;-81
2021/01/15 09:17:04;;;;;;;15.43;8.20;;;;;;;;;;10117017;29;21065;-81
2021/01/15 09:22:07;;;;;;;15.33;8.30;;;;;;;;;;10142459;29;20650;-82
2021/01/15 09:27:10;;;;;;;14.60;8.80;;;;;;;;;;10133372;29;20223;-79
2021/01/15 09:32:13;;;;;;;16.50;9.33;;;;;;;;;;10134693;29;20226;-80
2021/01/15 09:37:15;;;;;;;17.90;9.77;;;;;;;;;;10141249;29;20583;-82
2021/01/15 09:42:17;;;;;;;14.87;9.50;;;;;;;;;;10137847;29;20239;-82
2021/01/15 09:47:19;;;;;;;16.80;9.40;;;;;;;;;;10141211;29;20216;-83
2021/01/15 09:52:22;;;;;;;21.83;9.40;;;;;;;;;;10140811;29;20222;-82
2021/01/15 09:57:25;;;;;;;14.67;8.23;;;;;;;;;;10140430;29;20220;-83
2021/01/15 10:02:27;;;;;;;14.43;8.40;;;;;;;;;;10133438;29;20248;-82
2021/01/15 10:07:29;;;;;;;11.23;7.37;;;;;;;;;;10133877;29;20226;-82
2021/01/15 10:12:32;;;;;;;12.33;7.93;;;;;;;;;;10125236;29;20592;-84
2021/01/15 10:17:42;;;;;;;17.63;7.97;;;;;;;;;;10134002;29;20231;-80
2021/01/15 10:22:45;;;;;;;17.40;10.30;;;;;;;;;;10132682;29;20838;-82
2021/01/15 10:27:47;;;;;;;21.00;10.63;;;;;;;;;;10137652;29;20219;-81
2021/01/15 10:32:49;;;;;;;17.40;9.50;;;;;;;;;;10129477;29;20307;-81
2021/01/15 10:37:51;;;;;;;16.33;8.50;;;;;;;;;;10138758;29;20307;-77
2021/01/15 10:42:54;;;;;;;12.73;8.33;;;;;;;;;;10126571;29;20840;-79
2021/01/15 10:47:58;;;;;;;14.93;8.40;;;;;;;;;;10139099;29;20219;-81
2021/01/15 10:53:00;;;;;;;15.07;8.17;;;;;;;;;;10152052;29;20224;-81
2021/01/15 10:58:05;;;;;;;16.33;8.03;;;;;;;;;;10148597;29;20701;-78
2021/01/15 11:03:07;;;;;;;16.60;8.20;;;;;;;;;;10138019;29;20271;-81
2021/01/15 11:08:09;;;;;;;14.77;8.30;;;;;;;;;;10146763;29;20230;-86
2021/01/15 11:13:12;;;;;;;14.30;8.80;;;;;;;;;;10134383;29;20219;-81
2021/01/15 11:18:40;;;;;;;15.40;8.33;;;;;;;;;;10139553;29;20719;-89
2021/01/15 11:23:42;;;;;;;17.07;9.00;;;;;;;;;;10152421;29;20326;-81
2021/01/15 11:28:46;;;;;;;16.27;8.43;;;;;;;;;;10142696;29;20226;-91
2021/01/15 11:33:49;;;;;;;15.70;8.93;;;;;;;;;;10149386;29;20508;-87
2021/01/15 11:38:51;;;;;;;19.47;8.83;;;;;;;;;;10140374;29;20291;-77
2021/01/15 11:43:55;;;;;;;20.73;9.53;;;;;;;;;;10143060;29;20224;-80
2021/01/15 11:49:03;;;;;;;18.67;9.83;;;;;;;;;;10141512;29;20218;-79
2021/01/15 11:54:12;;;;;;;16.47;9.03;;;;;;;;;;10143234;29;20212;-85
2021/01/15 11:59:14;;;;;;;16.17;8.97;;;;;;;;;;10145075;29;20745;-86
2021/01/15 12:04:16;;;;;;;25.23;11.00;;;;;;;;;;10140765;29;20224;-86
2021/01/15 12:09:18;;;;;;;22.67;9.90;;;;;;;;;;10143216;29;20600;-86
2021/01/15 12:14:21;;;;;;;15.27;9.10;;;;;;;;;;10144398;29;20585;-86
2021/01/15 12:19:23;;;;;;;15.03;9.20;;;;;;;;;;10143281;29;20330;-85
2021/01/15 12:24:25;;;;;;;15.13;9.17;;;;;;;;;;10149192;29;20240;-77
2021/01/15 12:29:28;;;;;;;21.13;11.07;;;;;;;;;;10142802;29;20716;-85
2021/01/15 12:34:30;;;;;;;20.83;10.20;;;;;;;;;;10131636;29;20502;-81
2021/01/15 12:39:32;;;;;;;17.57;10.03;;;;;;;;;;10133459;29;20241;-79
2021/01/15 12:44:34;;;;;;;16.97;10.17;;;;;;;;;;10142331;29;20234;-79
2021/01/15 12:49:36;;;;;;;22.10;11.07;;;;;;;;;;10140871;29;20215;-80
2021/01/15 12:54:38;;;;;;;22.80;11.37;;;;;;;;;;10137557;29;20235;-82
2021/01/15 12:59:42;;;;;;;20.63;11.67;;;;;;;;;;10132521;29;20271;-80
2021/01/15 13:04:44;;;;;;;25.80;12.67;;;;;;;;;;10134902;29;20215;-82
2021/01/15 13:09:47;;;;;;;23.73;12.00;;;;;;;;;;10126728;29;20748;-81
2021/01/15 13:14:51;;;;;;;23.87;11.87;;;;;;;;;;10130381;29;20215;-80
2021/01/15 13:19:55;;;;;;;25.73;11.83;;;;;;;;;;10132700;29;20239;-83
2021/01/15 13:24:57;;;;;;;19.07;11.37;;;;;;;;;;10131962;29;20223;-84
2021/01/15 13:30:03;;;;;;;21.70;11.50;;;;;;;;;;10142177;29;20219;-85
2021/01/15 13:35:27;;;;;;;18.30;10.67;;;;;;;;;;10160952;29;20231;-82
2021/01/15 13:40:30;;;;;;;19.73;10.90;;;;;;;;;;10133427;29;20239;-79
2021/01/15 13:45:34;;;;;;;18.07;10.03;;;;;;;;;;10140453;29;20730;-88
2021/01/15 13:50:45;;;;;;;18.00;9.97;;;;;;;;;;10131428;29;20423;-78
2021/01/15 13:55:48;;;;;;;16.07;9.60;;;;;;;;;;10150228;29;20666;-91
2021/01/15 14:00:51;;;;;;;18.27;8.80;;;;;;;;;;10158272;29;20244;-90
2021/01/15 14:05:53;;;;;;;15.80;9.83;;;;;;;;;;10168284;29;20219;-90
2021/01/15 14:10:56;;;;;;;18.57;9.10;;;;;;;;;;10170323;29;20636;-89
2021/01/15 14:15:59;;;;;;;17.93;9.27;;;;;;;;;;10166845;29;20219;-89
2021/01/15 14:21:02;;;;;;;16.30;9.20;;;;;;;;;;10171635;29;20339;-91
2021/01/15 14:26:04;;;;;;;17.23;9.63;;;;;;;;;;10168877;29;20261;-90
2021/01/15 14:31:07;;;;;;;19.63;9.40;;;;;;;;;;10171449;29;20710;-90
2021/01/15 14:36:09;;;;;;;22.60;9.10;;;;;;;;;;10166438;29;20292;-91
2021/01/15 14:41:11;;;;;;;19.67;9.40;;;;;;;;;;10171746;29;20619;-92
2021/01/15 14:46:14;;;;;;;17.03;9.30;;;;;;;;;;10170039;29;20235;-89
2021/01/15 14:51:16;;;;;;;17.90;9.00;;;;;;;;;;10174574;29;20283;-89
2021/01/15 14:56:23;;;;;;;16.20;8.23;;;;;;;;;;10165614;29;20572;-88
2021/01/15 15:01:26;;;;;;;16.63;8.60;;;;;;;;;;10144263;29;20259;-86
2021/01/15 15:06:28;;;;;;;18.30;9.77;;;;;;;;;;10135082;29;20220;-87
2021/01/15 15:11:31;;;;;;;20.00;9.30;;;;;;;;;;10137745;29;20364;-84
2021/01/15 15:16:34;;;;;;;14.77;9.30;;;;;;;;;;10131913;29;20368;-85
2021/01/15 15:21:37;;;;;;;18.97;9.50;;;;;;;;;;10142566;29;20250;-87
2021/01/15 15:26:39;;;;;;;16.67;9.73;;;;;;;;;;10140302;29;20690;-86
2021/01/15 15:31:41;;;;;;;16.33;9.50;;;;;;;;;;10150670;29;20212;-88
2021/01/15 15:36:43;;;;;;;18.60;10.73;;;;;;;;;;10174307;29;20220;-86
2021/01/15 15:41:51;;;;;;;19.67;10.53;;;;;;;;;;10184087;29;20231;-85
2021/01/15 15:46:54;;;;;;;20.90;11.00;;;;;;;;;;10175654;29;20275;-85
2021/01/15 15:51:56;;;;;;;20.97;10.23;;;;;;;;;;10163814;29;20207;-86
2021/01/15 15:56:58;;;;;;;19.40;10.57;;;;;;;;;;10173966;29;20212;-89
2021/01/15 16:02:01;;;;;;;15.50;9.40;;;;;;;;;;10181421;29;20319;-89
2021/01/15 16:07:03;;;;;;;20.60;10.53;;;;;;;;;;10181690;29;20216;-89
2021/01/15 16:12:06;;;;;;;19.17;11.10;;;;;;;;;;10154934;29;20407;-87
2021/01/15 16:17:08;;;;;;;18.80;10.97;;;;;;;;;;10147670;29;20319;-87
2021/01/15 16:22:11;;;;;;;22.73;10.73;;;;;;;;;;10153842;29;20744;-89
2021/01/15 16:27:15;;;;;;;17.43;11.03;;;;;;;;;;10157275;29;20315;-88
2021/01/15 16:32:18;;;;;;;19.93;10.87;;;;;;;;;;10145091;29;20224;-87
2021/01/15 16:37:20;;;;;;;19.80;10.90;;;;;;;;;;10141557;29;20238;-87
2021/01/15 16:42:22;;;;;;;22.23;11.47;;;;;;;;;;10152250;29;20243;-88
2021/01/15 16:47:25;;;;;;;16.90;9.97;;;;;;;;;;10144627;29;20232;-88
2021/01/15 16:52:28;;;;;;;18.43;10.23;;;;;;;;;;10161812;29;20247;-89
2021/01/15 16:57:31;;;;;;;20.27;10.67;;;;;;;;;;10150690;29;20215;-89
2021/01/15 17:02:34;;;;;;;21.13;11.87;;;;;;;;;;10149938;29;20251;-87
2021/01/15 17:07:37;;;;;;;18.20;11.13;;;;;;;;;;10155131;29;20298;-86
2021/01/15 17:12:39;;;;;;;21.73;11.30;;;;;;;;;;10150412;29;20890;-88
2021/01/15 17:17:42;;;;;;;20.73;11.73;;;;;;;;;;10156311;29;20668;-90
2021/01/15 17:22:46;;;;;;;18.17;10.83;;;;;;;;;;10141736;29;20382;-80
2021/01/15 17:27:53;;;;;;;20.23;11.07;;;;;;;;;;10145611;29;20699;-81
2021/01/15 17:32:56;;;;;;;16.93;10.13;;;;;;;;;;10133799;29;20222;-80
2021/01/15 17:38:00;;;;;;;18.00;10.00;;;;;;;;;;10131272;29;20570;-81
2021/01/15 17:43:02;;;;;;;17.00;10.17;;;;;;;;;;10138705;29;20239;-81
2021/01/15 17:48:07;;;;;;;18.50;10.23;;;;;;;;;;10133026;29;20242;-82
2021/01/15 17:53:09;;;;;;;20.57;9.40;;;;;;;;;;10133812;29;20738;-81
2021/01/15 17:58:12;;;;;;;17.83;10.17;;;;;;;;;;10131892;29;20275;-81
2021/01/15 18:03:15;;;;;;;18.97;10.27;;;;;;;;;;10131590;29;20269;-82
2021/01/15 18:08:17;;;;;;;21.43;11.17;;;;;;;;;;10133742;29;20224;-81
2021/01/15 18:13:19;;;;;;;21.97;11.57;;;;;;;;;;10139619;29;20676;-81
2021/01/15 18:18:22;;;;;;;18.13;11.07;;;;;;;;;;10132171;29;20681;-82
2021/01/15 18:23:24;;;;;;;20.90;11.53;;;;;;;;;;10124829;29;20240;-82
2021/01/15 18:28:26;;;;;;;23.20;10.93;;;;;;;;;;10128199;29;20386;-81
2021/01/15 18:33:32;;;;;;;23.60;10.87;;;;;;;;;;10121056;29;20230;-81
2021/01/15 18:38:35;;;;;;;21.03;11.03;;;;;;;;;;10137318;29;20537;-81
2021/01/15 18:43:37;;;;;;;18.90;11.10;;;;;;;;;;10124035;29;20245;-83
2021/01/15 18:48:43;;;;;;;20.60;12.10;;;;;;;;;;10133948;29;20295;-82
2021/01/15 18:53:49;;;;;;;19.83;11.23;;;;;;;;;;10131183;29;20758;-82
2021/01/15 18:58:51;;;;;;;19.07;10.57;;;;;;;;;;10122478;29;20223;-82
2021/01/15 19:03:57;;;;;;;22.40;11.20;;;;;;;;;;10142598;29;20239;-80
2021/01/15 19:08:59;;;;;;;21.37;11.70;;;;;;;;;;10137112;29;20561;-82
2021/01/15 19:14:00;;;;;;;20.07;11.20;;;;;;;;;;10132938;29;20226;-82
2021/01/15 19:19:03;;;;;;;21.60;12.10;;;;;;;;;;10141803;29;20228;-81
2021/01/15 19:24:05;;;;;;;18.23;11.20;;;;;;;;;;10130495;29;20250;-82
2021/01/15 19:29:07;;;;;;;19.47;11.43;;;;;;;;;;10127057;29;20223;-82
2021/01/15 19:34:10;;;;;;;23.10;12.80;;;;;;;;;;10117749;29;20235;-82
2021/01/15 19:39:12;;;;;;;23.07;12.57;;;;;;;;;;10136191;29;20483;-82
2021/01/15 19:44:14;;;;;;;24.07;13.37;;;;;;;;;;10128001;29;22276;-84
2021/01/15 19:49:16;;;;;;;22.70;12.17;;;;;;;;;;10137588;29;20223;-82
2021/01/15 19:54:18;;;;;;;28.00;12.77;;;;;;;;;;10137777;29;20634;-81
2021/01/15 19:59:20;;;;;;;19.17;12.27;;;;;;;;;;10137510;29;20971;-83
2021/01/15 20:04:23;;;;;;;21.57;12.13;;;;;;;;;;10115168;29;20239;-82
2021/01/15 20:09:25;;;;;;;21.43;12.03;;;;;;;;;;10136007;29;20223;-81
2021/01/15 20:14:27;;;;;;;18.57;11.07;;;;;;;;;;10127392;29;20931;-81
2021/01/15 20:19:30;;;;;;;26.57;12.07;;;;;;;;;;10126490;29;20224;-81
2021/01/15 20:24:32;;;;;;;24.17;11.77;;;;;;;;;;10129244;29;20710;-82
2021/01/15 20:29:34;;;;;;;20.07;11.27;;;;;;;;;;10125817;29;20375;-82
2021/01/15 20:34:36;;;;;;;19.87;10.47;;;;;;;;;;10127916;29;20220;-82
2021/01/15 20:39:38;;;;;;;20.37;12.00;;;;;;;;;;10135596;29;20216;-82
2021/01/15 20:44:40;;;;;;;21.37;12.37;;;;;;;;;;10128409;29;20219;-82
2021/01/15 20:49:46;;;;;;;21.40;12.23;;;;;;;;;;10125538;29;20220;-81
2021/01/15 20:54:48;;;;;;;20.87;12.63;;;;;;;;;;10123048;29;20471;-81
2021/01/15 20:59:50;;;;;;;20.47;11.63;;;;;;;;;;10130054;29;20835;-81
2021/01/15 21:04:53;;;;;;;23.63;11.70;;;;;;;;;;10126966;29;20253;-81
2021/01/15 21:09:55;;;;;;;21.07;11.37;;;;;;;;;;10135677;29;20209;-89
2021/01/15 21:14:57;;;;;;;21.90;12.50;;;;;;;;;;10160753;29;20274;-90
2021/01/15 21:19:59;;;;;;;20.13;11.73;;;;;;;;;;10158789;29;20708;-90
2021/01/15 21:25:01;;;;;;;20.23;11.90;;;;;;;;;;10158257;29;20578;-89
2021/01/15 21:30:04;;;;;;;20.33;12.00;;;;;;;;;;10161233;29;20212;-89
2021/01/15 21:35:08;;;;;;;21.63;11.73;;;;;;;;;;10151975;29;20216;-90
2021/01/15 21:40:10;;;;;;;21.97;11.67;;;;;;;;;;10158326;29;20240;-90
2021/01/15 21:45:13;;;;;;;23.73;11.90;;;;;;;;;;10157443;29;20239;-90
2021/01/15 21:50:17;;;;;;;20.50;12.10;;;;;;;;;;10149437;29;20299;-90
2021/01/15 21:55:19;;;;;;;22.70;12.13;;;;;;;;;;10149564;29;20216;-90
2021/01/15 22:00:22;;;;;;;18.90;11.43;;;;;;;;;;10148686;29;20235;-90
2021/01/15 22:05:25;;;;;;;21.37;12.03;;;;;;;;;;10172101;29;20217;-89
2021/01/15 22:10:27;;;;;;;19.67;11.77;;;;;;;;;;10167511;29;20219;-88
2021/01/15 22:15:29;;;;;;;22.27;11.83;;;;;;;;;;10153971;29;20655;-90
2021/01/15 22:20:35;;;;;;;20.07;12.23;;;;;;;;;;10152915;29;20724;-88
2021/01/15 22:25:40;;;;;;;28.63;13.10;;;;;;;;;;10146691;29;20236;-89
2021/01/15 22:30:41;;;;;;;24.30;13.33;;;;;;;;;;10150972;29;20597;-90
2021/01/15 22:35:45;;;;;;;28.17;13.10;;;;;;;;;;10151472;29;20227;-90
2021/01/15 22:40:49;;;;;;;19.17;11.77;;;;;;;;;;10170089;29;20239;-90
2021/01/15 22:45:51;;;;;;;22.93;12.23;;;;;;;;;;10165386;29;20551;-89
2021/01/15 22:50:55;;;;;;;20.73;11.80;;;;;;;;;;10169553;29;20291;-93
2021/01/15 22:55:57;;;;;;;27.93;13.90;;;;;;;;;;10187791;29;20312;-88
2021/01/15 23:00:59;;;;;;;25.90;14.40;;;;;;;;;;10181280;29;20232;-90
2021/01/15 23:06:03;;;;;;;24.07;13.37;;;;;;;;;;10184555;29;20239;-91
2021/01/15 23:11:05;;;;;;;25.00;12.43;;;;;;;;;;10189728;29;20208;-90
2021/01/15 23:16:07;;;;;;;20.47;10.77;;;;;;;;;;10197983;29;20247;-90
2021/01/15 23:21:10;;;;;;;18.90;11.60;;;;;;;;;;10193220;29;20332;-90
2021/01/15 23:26:12;;;;;;;20.77;11.47;;;;;;;;;;10195892;29;20212;-89
2021/01/15 23:31:14;;;;;;;19.70;10.87;;;;;;;;;;10194186;29;20494;-89
2021/01/15 23:36:17;;;;;;;20.37;10.77;;;;;;;;;;10203514;29;20320;-90
2021/01/15 23:41:19;;;;;;;19.87;10.53;;;;;;;;;;10196425;29;20722;-88
2021/01/15 23:46:21;;;;;;;17.43;10.37;;;;;;;;;;10186730;29;20247;-83
2021/01/15 23:51:24;;;;;;;18.00;10.90;;;;;;;;;;10174966;29;20251;-83
2021/01/15 23:56:25;;;;;;;17.47;9.67;;;;;;;;;;10161698;29;20391;-83
